createdAt,value
2017-10-28T00:00:15.381Z,9.90
2017-10-28T00:02:44.280Z,10.25
2017-10-28T00:05:13.300Z,9.18
2017-10-28T00:07:42.179Z,10.25
2017-10-28T00:10:10.473Z,10.02
2017-10-28T00:12:38.616Z,9.25
2017-10-28T00:15:08.988Z,9.20
2017-10-28T00:17:37.310Z,8.98
2017-10-28T00:20:06.681Z,9.57
2017-10-28T00:22:36.074Z,10.35
2017-10-28T00:25:04.345Z,10.55
2017-10-28T00:27:33.357Z,9.80
2017-10-28T00:30:07.139Z,8.38
2017-10-28T00:32:41.092Z,8.52
2017-10-28T00:35:17.387Z,9.60
2017-10-28T00:37:45.508Z,9.90
2017-10-28T00:40:13.633Z,9.32
2017-10-28T00:42:41.775Z,9.27
2017-10-28T00:45:10.065Z,10.90
2017-10-28T00:47:38.226Z,7.90
2017-10-28T00:50:07.139Z,9.48
2017-10-28T00:52:36.010Z,10.68
2017-10-28T00:55:04.136Z,10.25
2017-10-28T00:57:32.312Z,9.55
2017-10-28T01:00:01.231Z,10.25
2017-10-28T01:02:30.190Z,9.27
2017-10-28T01:04:58.336Z,9.45
2017-10-28T01:07:26.452Z,9.77
2017-10-28T01:09:54.575Z,9.95
2017-10-28T01:12:22.686Z,9.65
2017-10-28T01:14:50.932Z,10.55
2017-10-28T01:17:19.095Z,9.90
2017-10-28T01:19:47.207Z,10.20
2017-10-28T01:22:15.337Z,9.23
2017-10-28T01:24:43.522Z,11.10
2017-10-28T01:27:11.645Z,9.55
2017-10-28T01:29:39.765Z,10.23
2017-10-28T01:32:07.889Z,9.70
2017-10-28T01:34:36.758Z,8.95
2017-10-28T01:37:04.890Z,9.82
2017-10-28T01:39:33.033Z,10.00
2017-10-28T01:42:01.916Z,9.90
2017-10-28T01:44:30.839Z,10.15
2017-10-28T01:46:58.942Z,9.65
2017-10-28T01:49:27.101Z,10.95
2017-10-28T01:51:55.221Z,9.77
2017-10-28T01:54:24.117Z,10.63
2017-10-28T01:56:53.010Z,10.80
2017-10-28T01:59:21.903Z,9.73
2017-10-28T02:01:50.784Z,8.80
2017-10-28T02:04:19.675Z,10.27
2017-10-28T02:06:48.568Z,10.75
2017-10-28T02:09:17.477Z,10.07
2017-10-28T02:11:45.598Z,9.55
2017-10-28T02:14:13.705Z,10.43
2017-10-28T02:16:42.595Z,11.00
2017-10-28T02:19:11.483Z,11.50
2017-10-28T02:21:40.383Z,10.13
2017-10-28T02:24:08.530Z,10.70
2017-10-28T02:26:37.435Z,11.65
2017-10-28T02:29:06.323Z,9.85
2017-10-28T02:31:35.239Z,9.93
2017-10-28T02:34:04.112Z,9.70
2017-10-28T02:36:33.010Z,11.40
2017-10-28T02:39:01.164Z,11.13
2017-10-28T02:41:29.271Z,9.70
2017-10-28T02:43:57.389Z,11.07
2017-10-28T02:46:25.509Z,10.70
2017-10-28T02:48:53.680Z,10.05
2017-10-28T02:51:22.546Z,12.00
2017-10-28T02:53:51.440Z,11.13
2017-10-28T02:56:19.578Z,11.10
2017-10-28T02:58:47.703Z,9.98
2017-10-28T03:01:15.832Z,9.80
2017-10-28T03:03:43.950Z,10.70
2017-10-28T03:06:12.082Z,10.30
2017-10-28T03:08:40.192Z,10.63
2017-10-28T03:11:08.320Z,11.57
2017-10-28T03:13:36.464Z,10.05
2017-10-28T03:16:04.594Z,11.55
2017-10-28T03:18:32.783Z,10.63
2017-10-28T03:21:00.898Z,10.77
2017-10-28T03:23:29.020Z,11.63
2017-10-28T03:25:57.200Z,9.32
2017-10-28T03:28:25.371Z,11.40
2017-10-28T03:30:53.504Z,11.07
2017-10-28T03:33:21.687Z,11.02
2017-10-28T03:35:49.798Z,12.02
2017-10-28T03:38:17.920Z,11.37
2017-10-28T03:40:46.813Z,13.02
2017-10-28T03:43:15.022Z,11.00
2017-10-28T03:45:43.192Z,11.68
2017-10-28T03:48:11.376Z,10.60
2017-10-28T03:50:39.475Z,10.23
2017-10-28T03:53:07.614Z,12.30
2017-10-28T03:55:35.750Z,12.43
2017-10-28T03:58:04.676Z,11.23
2017-10-28T04:00:32.789Z,11.07
2017-10-28T04:03:00.921Z,10.77
2017-10-28T04:05:29.042Z,11.15
2017-10-28T04:07:57.179Z,11.20
2017-10-28T04:10:25.309Z,11.10
2017-10-28T04:12:54.204Z,11.10
2017-10-28T04:15:23.103Z,11.20
2017-10-28T04:17:51.210Z,11.15
2017-10-28T04:20:19.362Z,10.40
2017-10-28T04:22:47.456Z,11.20
2017-10-28T04:25:15.590Z,12.70
2017-10-28T04:27:43.721Z,11.57
2017-10-28T04:30:11.847Z,12.32
2017-10-28T04:32:40.021Z,11.48
2017-10-28T04:35:08.195Z,10.65
2017-10-28T04:37:36.305Z,11.32
2017-10-28T04:40:04.423Z,12.00
2017-10-28T04:42:32.547Z,12.55
2017-10-28T04:45:00.671Z,12.32
2017-10-28T04:47:28.795Z,11.88
2017-10-28T04:49:57.032Z,12.48
2017-10-28T04:52:25.151Z,12.30
2017-10-28T04:54:53.281Z,11.70
2017-10-28T04:57:21.448Z,11.85
2017-10-28T04:59:49.566Z,11.57
2017-10-28T05:02:17.692Z,11.90
2017-10-28T05:04:45.837Z,13.00
2017-10-28T05:07:14.750Z,12.63
2017-10-28T05:09:42.919Z,12.47
2017-10-28T05:12:11.025Z,10.80
2017-10-28T05:14:39.214Z,12.63
2017-10-28T05:17:07.356Z,11.52
2017-10-28T05:19:35.515Z,11.93
2017-10-28T05:22:03.645Z,12.60
2017-10-28T05:24:31.788Z,11.50
2017-10-28T05:27:00.696Z,11.50
2017-10-28T05:29:28.835Z,12.82
2017-10-28T05:31:56.965Z,13.45
2017-10-28T05:34:25.864Z,12.85
2017-10-28T05:36:53.996Z,13.27
2017-10-28T05:39:22.128Z,12.83
2017-10-28T05:41:50.254Z,12.13
2017-10-28T05:44:18.472Z,12.45
2017-10-28T05:46:46.582Z,12.07
2017-10-28T05:49:14.715Z,11.20
2017-10-28T05:51:42.846Z,11.40
2017-10-28T05:54:10.995Z,12.80
2017-10-28T05:56:39.122Z,12.18
2017-10-28T05:59:08.160Z,13.27
2017-10-28T06:01:36.886Z,12.73
2017-10-28T06:04:05.786Z,12.02
2017-10-28T06:06:34.673Z,11.80
2017-10-28T06:09:02.837Z,12.03
2017-10-28T06:11:31.756Z,13.30
2017-10-28T06:13:59.870Z,11.43
2017-10-28T06:16:27.999Z,12.32
2017-10-28T06:18:56.177Z,12.93
2017-10-28T06:21:24.289Z,10.30
2017-10-28T06:23:52.520Z,13.07
2017-10-28T06:26:20.668Z,13.30
2017-10-28T06:28:49.687Z,11.35
2017-10-28T06:31:18.661Z,12.18
2017-10-28T06:33:46.851Z,12.15
2017-10-28T06:36:14.975Z,12.47
2017-10-28T06:38:43.096Z,12.57
2017-10-28T06:41:11.270Z,11.50
2017-10-28T06:43:39.442Z,12.02
2017-10-28T06:46:07.592Z,11.50
2017-10-28T06:48:36.492Z,10.38
2017-10-28T06:51:04.660Z,11.93
2017-10-28T06:53:32.850Z,10.40
2017-10-28T06:56:01.031Z,11.48
2017-10-28T06:58:29.202Z,10.23
2017-10-28T07:01:04.103Z,12.03
2017-10-28T07:03:35.781Z,10.40
2017-10-28T07:06:12.620Z,9.65
2017-10-28T07:08:41.879Z,10.43
2017-10-28T07:11:10.002Z,10.25
2017-10-28T07:13:38.911Z,10.13
2017-10-28T07:16:07.100Z,8.85
2017-10-28T07:18:35.202Z,10.77
2017-10-28T07:21:03.344Z,10.10
2017-10-28T07:23:31.500Z,10.00
2017-10-28T07:25:59.628Z,9.93
2017-10-28T07:28:27.783Z,10.73
2017-10-28T07:30:55.942Z,10.45
2017-10-28T07:33:24.105Z,10.10
2017-10-28T07:35:52.979Z,10.40
2017-10-28T07:38:22.005Z,10.60
2017-10-28T07:40:50.094Z,9.48
2017-10-28T07:43:18.256Z,9.95
2017-10-28T07:45:46.381Z,10.00
2017-10-28T07:48:14.529Z,9.82
2017-10-28T07:50:42.680Z,9.83
2017-10-28T07:53:10.791Z,9.63
2017-10-28T07:55:39.129Z,10.27
2017-10-28T07:58:07.299Z,9.43
2017-10-28T08:00:36.173Z,10.63
2017-10-28T08:03:04.367Z,10.07
2017-10-28T08:05:33.365Z,9.60
2017-10-28T08:08:01.479Z,9.13
2017-10-28T08:10:29.625Z,9.65
2017-10-28T08:12:57.744Z,10.32
2017-10-28T08:15:26.672Z,10.45
2017-10-28T08:17:54.805Z,9.27
2017-10-28T08:20:22.912Z,10.07
2017-10-28T08:22:51.073Z,9.83
2017-10-28T08:25:19.260Z,8.48
2017-10-28T08:27:47.432Z,9.40
2017-10-28T08:30:15.544Z,9.40
2017-10-28T08:32:43.680Z,9.90
2017-10-28T08:35:11.807Z,8.60
2017-10-28T08:37:39.946Z,9.02
2017-10-28T08:40:08.094Z,10.15
2017-10-28T08:42:36.209Z,9.65
2017-10-28T08:45:04.437Z,9.98
2017-10-28T08:47:33.328Z,10.80
2017-10-28T08:50:01.476Z,10.20
2017-10-28T08:52:29.580Z,9.23
2017-10-28T08:54:57.712Z,9.55
2017-10-28T08:57:26.613Z,9.27
2017-10-28T08:59:55.532Z,9.98
2017-10-28T09:02:23.637Z,9.57
2017-10-28T09:04:51.873Z,10.30
2017-10-28T09:07:20.747Z,10.18
2017-10-28T09:09:48.883Z,10.18
2017-10-28T09:12:17.122Z,10.05
2017-10-28T09:14:45.225Z,9.50
2017-10-28T09:17:13.338Z,10.27
2017-10-28T09:19:42.251Z,10.45
2017-10-28T09:22:11.143Z,10.47
2017-10-28T09:24:39.277Z,8.10
2017-10-28T09:27:08.210Z,9.55
2017-10-28T09:29:36.310Z,8.80
2017-10-28T09:32:04.460Z,8.70
2017-10-28T09:34:32.677Z,9.38
2017-10-28T09:37:01.593Z,9.77
2017-10-28T09:39:30.484Z,9.27
2017-10-28T09:41:59.496Z,9.23
2017-10-28T09:44:28.697Z,7.40
2017-10-28T09:46:57.558Z,9.80
2017-10-28T09:49:26.477Z,9.88
2017-10-28T09:51:54.604Z,9.50
2017-10-28T09:54:22.827Z,8.18
2017-10-28T09:56:51.002Z,8.38
2017-10-28T09:59:19.113Z,9.00
2017-10-28T10:01:47.252Z,8.35
2017-10-28T10:04:15.419Z,8.20
2017-10-28T10:06:43.568Z,6.77
2017-10-28T10:09:11.695Z,7.43
2017-10-28T10:11:39.819Z,6.22
2017-10-28T10:14:08.696Z,7.05
2017-10-28T10:16:37.610Z,6.45
2017-10-28T10:19:06.480Z,6.53
2017-10-28T10:21:35.392Z,6.50
2017-10-28T10:24:03.531Z,7.60
2017-10-28T10:26:32.435Z,6.03
2017-10-28T10:29:00.629Z,6.62
2017-10-28T10:31:29.111Z,6.53
2017-10-28T10:33:57.235Z,6.22
2017-10-28T10:36:25.454Z,6.03
2017-10-28T10:38:54.324Z,5.50
2017-10-28T10:41:22.492Z,5.80
2017-10-28T10:43:51.407Z,6.15
2017-10-28T10:46:19.581Z,5.82
2017-10-28T10:48:47.737Z,6.10
2017-10-28T10:51:16.611Z,5.73
2017-10-28T10:53:45.508Z,5.70
2017-10-28T10:56:14.426Z,4.62
2017-10-28T10:58:42.603Z,5.60
2017-10-28T11:01:10.708Z,6.37
2017-10-28T11:03:38.858Z,6.45
2017-10-28T11:06:06.998Z,5.40
2017-10-28T11:08:35.156Z,6.30
2017-10-28T11:11:04.075Z,5.30
2017-10-28T11:13:32.934Z,6.10
2017-10-28T11:16:01.856Z,5.75
2017-10-28T11:18:29.967Z,5.47
2017-10-28T11:20:58.101Z,4.73
2017-10-28T11:23:26.256Z,4.70
2017-10-28T11:25:54.446Z,5.47
2017-10-28T11:28:22.575Z,4.12
2017-10-28T11:30:50.689Z,5.40
2017-10-28T11:33:18.867Z,4.43
2017-10-28T11:35:46.968Z,5.15
2017-10-28T11:38:15.096Z,5.50
2017-10-28T11:40:43.223Z,4.60
2017-10-28T11:43:11.356Z,5.32
2017-10-28T11:45:39.491Z,4.78
2017-10-28T11:48:08.395Z,5.62
2017-10-28T11:50:36.600Z,4.80
2017-10-28T11:53:04.740Z,5.22
2017-10-28T11:58:07.451Z,7.05
2017-10-28T12:00:36.333Z,5.03
2017-10-28T12:03:04.486Z,5.95
2017-10-28T12:05:33.396Z,5.50
2017-10-28T12:08:01.577Z,5.12
2017-10-28T12:10:29.702Z,5.62
2017-10-28T12:12:57.810Z,5.85
2017-10-28T12:15:25.996Z,5.10
2017-10-28T12:17:54.150Z,5.45
2017-10-28T12:20:23.052Z,5.65
2017-10-28T12:22:51.188Z,4.50
2017-10-28T12:25:20.091Z,6.10
2017-10-28T12:27:48.985Z,6.20
2017-10-28T12:30:18.430Z,5.00
2017-10-28T12:32:53.365Z,5.28
2017-10-28T12:35:21.514Z,5.55
2017-10-28T12:37:50.405Z,4.15
2017-10-28T12:40:18.579Z,5.20
2017-10-28T12:42:46.687Z,4.65
2017-10-28T12:45:14.817Z,4.07
2017-10-28T12:47:42.945Z,5.93
2017-10-28T12:50:11.071Z,5.35
2017-10-28T12:52:39.236Z,5.37
2017-10-28T12:55:07.365Z,5.82
2017-10-28T12:57:35.583Z,4.90
2017-10-28T13:00:04.056Z,4.95
2017-10-28T13:02:32.921Z,4.45
2017-10-28T13:05:01.827Z,5.15
2017-10-28T13:07:30.120Z,4.70
2017-10-28T13:09:58.290Z,4.50
2017-10-28T13:12:27.169Z,4.55
2017-10-28T13:14:56.055Z,4.70
2017-10-28T13:17:24.245Z,4.95
2017-10-28T13:19:52.352Z,4.93
2017-10-28T13:22:20.491Z,4.77
2017-10-28T13:24:48.610Z,3.97
2017-10-28T13:27:16.740Z,5.22
2017-10-28T13:29:44.892Z,2.90
2017-10-28T13:32:13.078Z,4.75
2017-10-28T13:34:41.196Z,4.22
2017-10-28T13:37:09.286Z,5.13
2017-10-28T13:39:38.208Z,3.90
2017-10-28T13:42:06.396Z,4.20
2017-10-28T13:44:34.492Z,4.55
2017-10-28T13:47:02.728Z,4.62
2017-10-28T13:49:31.620Z,4.75
2017-10-28T13:52:00.502Z,5.03
2017-10-28T13:54:28.685Z,4.15
2017-10-28T13:56:56.813Z,4.22
2017-10-28T13:59:24.950Z,5.47
2017-10-28T14:01:53.105Z,4.77
2017-10-28T14:04:21.249Z,4.37
2017-10-28T14:06:50.154Z,5.47
2017-10-28T14:09:18.291Z,4.75
2017-10-28T14:11:46.418Z,3.97
2017-10-28T14:14:14.553Z,5.65
2017-10-28T14:16:43.583Z,4.43
2017-10-28T14:19:11.761Z,5.47
2017-10-28T14:21:39.872Z,5.40
2017-10-28T14:24:08.205Z,5.10
2017-10-28T14:26:36.341Z,4.82
2017-10-28T14:29:05.255Z,5.67
2017-10-28T14:31:33.383Z,5.70
2017-10-28T14:34:01.548Z,5.37
2017-10-28T14:36:29.675Z,5.80
2017-10-28T14:38:57.808Z,5.70
2017-10-28T14:41:26.735Z,4.97
2017-10-28T14:43:54.869Z,5.57
2017-10-28T14:46:22.999Z,5.00
2017-10-28T14:48:51.148Z,5.03
2017-10-28T14:51:19.276Z,5.60
2017-10-28T14:53:47.505Z,5.18
2017-10-28T14:56:15.638Z,4.78
2017-10-28T14:58:44.560Z,5.20
2017-10-28T15:01:12.750Z,5.03
2017-10-28T15:03:40.909Z,4.90
2017-10-28T15:06:09.028Z,5.50
2017-10-28T15:08:37.255Z,5.37
2017-10-28T15:11:05.382Z,5.47
2017-10-28T15:13:33.509Z,4.72
2017-10-28T15:16:01.644Z,5.33
2017-10-28T15:18:30.545Z,5.60
2017-10-28T15:20:59.457Z,5.10
2017-10-28T15:23:27.622Z,5.78
2017-10-28T15:25:55.794Z,5.53
2017-10-28T15:28:24.697Z,5.90
2017-10-28T15:30:52.798Z,5.33
2017-10-28T15:33:21.089Z,5.50
2017-10-28T15:35:49.223Z,4.97
2017-10-28T15:38:17.346Z,5.78
2017-10-28T15:40:46.265Z,4.97
2017-10-28T15:43:14.399Z,5.12
2017-10-28T15:45:42.550Z,5.70
2017-10-28T15:48:10.695Z,5.65
2017-10-28T15:50:38.828Z,4.60
2017-10-28T15:53:07.743Z,5.87
2017-10-28T15:55:35.857Z,5.20
2017-10-28T15:58:03.999Z,5.03
2017-10-28T16:00:32.148Z,4.50
2017-10-28T16:03:00.289Z,5.70
2017-10-28T16:05:28.418Z,5.80
2017-10-28T16:07:56.579Z,6.05
2017-10-28T16:10:24.691Z,4.95
2017-10-28T16:12:52.872Z,6.90
2017-10-28T16:15:21.009Z,5.50
2017-10-28T16:17:49.156Z,5.55
2017-10-28T16:20:17.288Z,6.25
2017-10-28T16:22:45.425Z,5.82
2017-10-28T16:25:13.591Z,5.37
2017-10-28T16:27:41.710Z,5.40
2017-10-28T16:30:09.824Z,5.63
2017-10-28T16:32:38.004Z,5.32
2017-10-28T16:35:06.112Z,5.68
2017-10-28T16:37:34.249Z,5.33
2017-10-28T16:40:03.138Z,6.53
2017-10-28T16:42:31.276Z,5.72
2017-10-28T16:45:00.475Z,5.80
2017-10-28T16:47:29.360Z,5.37
2017-10-28T16:49:58.262Z,5.15
2017-10-28T16:52:26.424Z,6.47
2017-10-28T16:54:55.350Z,5.15
2017-10-28T16:57:24.550Z,6.12
2017-10-28T16:59:52.655Z,5.47
2017-10-28T17:02:20.793Z,5.07
2017-10-28T17:04:48.925Z,5.53
2017-10-28T17:07:17.885Z,7.27
2017-10-28T17:09:46.027Z,5.00
2017-10-28T17:12:14.303Z,5.82
2017-10-28T17:14:43.161Z,6.07
2017-10-28T17:17:12.089Z,6.37
2017-10-28T17:19:40.226Z,5.35
2017-10-28T17:22:08.433Z,5.20
2017-10-28T17:24:36.560Z,5.60
2017-10-28T17:27:04.687Z,6.25
2017-10-28T17:29:32.944Z,6.35
2017-10-28T17:32:01.941Z,5.50
2017-10-28T17:34:30.112Z,5.05
2017-10-28T17:36:58.285Z,6.30
2017-10-28T17:39:26.479Z,5.50
2017-10-28T17:41:54.583Z,5.40
2017-10-28T17:44:22.714Z,5.18
2017-10-28T17:46:50.866Z,4.40
2017-10-28T17:49:19.763Z,4.60
2017-10-28T17:51:48.653Z,3.40
2017-10-28T17:54:16.774Z,4.70
2017-10-28T17:56:44.914Z,3.93
2017-10-28T17:59:13.035Z,3.72
2017-10-28T18:01:41.230Z,2.70
2017-10-28T18:04:09.349Z,4.60
2017-10-28T18:06:37.526Z,3.40
2017-10-28T18:09:05.764Z,4.20
2017-10-28T18:11:34.654Z,3.60
2017-10-28T18:14:02.870Z,4.32
2017-10-28T18:16:30.968Z,3.77
2017-10-28T18:18:59.890Z,3.75
2017-10-28T18:21:28.067Z,3.10
2017-10-28T18:23:56.241Z,3.30
2017-10-28T18:26:24.381Z,3.78
2017-10-28T18:28:53.306Z,3.30
2017-10-28T18:31:21.648Z,3.47
2017-10-28T18:33:49.802Z,2.83
2017-10-28T18:36:18.025Z,3.70
2017-10-28T18:38:46.208Z,3.55
2017-10-28T18:41:14.368Z,2.97
2017-10-28T18:43:42.543Z,2.67
2017-10-28T18:46:10.635Z,2.90
2017-10-28T18:48:38.755Z,3.20
2017-10-28T18:51:07.644Z,2.40
2017-10-28T18:53:36.581Z,3.10
2017-10-28T18:56:04.705Z,2.78
2017-10-28T18:58:33.603Z,3.15
2017-10-28T19:01:02.515Z,2.87
2017-10-28T19:03:31.416Z,2.70
2017-10-28T19:05:59.572Z,2.63
2017-10-28T19:08:28.569Z,2.50
2017-10-28T19:10:57.471Z,2.80
2017-10-28T19:13:25.839Z,2.33
2017-10-28T19:15:53.966Z,2.70
2017-10-28T19:18:22.901Z,2.22
2017-10-28T19:20:51.761Z,1.80
2017-10-28T19:23:20.676Z,1.90
2017-10-28T19:25:48.855Z,1.90
2017-10-28T19:28:17.711Z,2.20
2017-10-28T19:30:46.939Z,1.57
2017-10-28T19:33:15.934Z,2.60
2017-10-28T19:35:44.086Z,2.90
2017-10-28T19:38:12.958Z,1.70
2017-10-28T19:40:41.858Z,1.92
2017-10-28T19:43:10.057Z,1.80
2017-10-28T19:45:38.948Z,2.13
2017-10-28T19:48:07.121Z,2.42
2017-10-28T19:50:36.003Z,1.60
2017-10-28T19:53:04.127Z,2.20
2017-10-28T19:55:33.077Z,1.58
2017-10-28T19:58:01.199Z,1.40
2017-10-28T20:00:29.393Z,1.70
2017-10-28T20:02:57.517Z,1.67
2017-10-28T20:05:25.755Z,1.70
2017-10-28T20:07:53.906Z,1.35
2017-10-28T20:10:22.007Z,1.42
2017-10-28T20:12:50.144Z,1.40
2017-10-28T20:15:18.247Z,2.65
2017-10-28T20:17:46.555Z,2.00
2017-10-28T20:20:14.826Z,1.70
2017-10-28T20:22:42.976Z,2.12
2017-10-28T20:25:11.096Z,2.40
2017-10-28T20:27:39.226Z,3.20
2017-10-28T20:30:07.355Z,2.47
2017-10-28T20:32:36.300Z,2.10
2017-10-28T20:35:04.458Z,2.33
2017-10-28T20:37:32.607Z,2.43
2017-10-28T20:40:01.490Z,2.75
2017-10-28T20:42:30.370Z,2.50
2017-10-28T20:44:58.521Z,2.45
2017-10-28T20:47:26.635Z,2.62
2017-10-28T20:49:55.746Z,3.50
2017-10-28T20:52:23.878Z,3.00
2017-10-28T20:54:52.913Z,2.92
2017-10-28T20:57:21.014Z,2.60
2017-10-28T20:59:49.131Z,2.95
2017-10-28T21:02:17.275Z,3.03
2017-10-28T21:04:45.408Z,2.72
2017-10-28T21:07:13.531Z,2.57
2017-10-28T21:09:41.699Z,2.42
2017-10-28T21:12:09.813Z,2.55
2017-10-28T21:14:38.029Z,2.90
2017-10-28T21:17:06.183Z,2.97
2017-10-28T21:19:34.340Z,2.53
2017-10-28T21:22:02.461Z,2.80
2017-10-28T21:24:30.578Z,2.47
2017-10-28T21:26:59.265Z,2.92
2017-10-28T21:29:27.577Z,2.78
2017-10-28T21:31:55.709Z,3.03
2017-10-28T21:34:23.824Z,2.50
2017-10-28T21:36:52.059Z,3.10
2017-10-28T21:39:20.159Z,3.03
2017-10-28T21:41:48.304Z,3.10
2017-10-28T21:44:16.457Z,2.35
2017-10-28T21:46:44.616Z,2.40
2017-10-28T21:49:12.801Z,2.40
2017-10-28T21:51:41.684Z,2.60
2017-10-28T21:54:09.826Z,2.50
2017-10-28T21:56:38.022Z,2.60
2017-10-28T21:59:06.909Z,2.90
2017-10-28T22:01:35.809Z,3.47
2017-10-28T22:04:04.747Z,2.50
2017-10-28T22:06:32.976Z,3.27
2017-10-28T22:09:01.901Z,2.62
2017-10-28T22:11:30.025Z,2.90
2017-10-28T22:13:58.174Z,2.87
2017-10-28T22:16:27.083Z,2.33
2017-10-28T22:18:55.207Z,1.80
2017-10-28T22:21:23.488Z,2.47
2017-10-28T22:23:51.749Z,2.05
2017-10-28T22:26:19.896Z,3.03
2017-10-28T22:28:48.811Z,3.20
2017-10-28T22:31:16.952Z,3.90
2017-10-28T22:33:45.162Z,4.00
2017-10-28T22:36:13.408Z,2.67
2017-10-28T22:38:42.528Z,3.78
2017-10-28T22:41:10.647Z,3.70
2017-10-28T22:43:38.849Z,3.70
2017-10-28T22:46:07.037Z,3.40
2017-10-28T22:48:35.322Z,3.30
2017-10-28T22:51:04.195Z,3.07
2017-10-28T22:53:32.323Z,3.75
2017-10-28T22:56:00.762Z,4.05
2017-10-28T22:58:29.678Z,3.58
2017-10-28T23:00:57.890Z,3.80
2017-10-28T23:03:26.006Z,4.10
2017-10-28T23:05:54.127Z,4.32
2017-10-28T23:08:23.064Z,3.85
2017-10-28T23:10:52.169Z,4.68
2017-10-28T23:13:20.541Z,4.12
2017-10-28T23:15:49.666Z,4.70
2017-10-28T23:18:18.592Z,4.20
2017-10-28T23:20:47.489Z,4.70
2017-10-28T23:23:16.404Z,4.07
2017-10-28T23:25:44.573Z,6.20
2017-10-28T23:28:12.743Z,5.40
2017-10-28T23:30:41.623Z,4.63
2017-10-28T23:33:09.807Z,4.60
2017-10-28T23:35:38.724Z,4.90
2017-10-28T23:38:06.874Z,3.92
2017-10-28T23:40:36.065Z,4.93
2017-10-28T23:43:04.959Z,5.90
2017-10-28T23:45:33.053Z,4.40
2017-10-28T23:48:01.245Z,4.35
2017-10-28T23:50:29.477Z,5.50
2017-10-28T23:52:57.753Z,4.70
2017-10-28T23:55:26.627Z,5.20
2017-10-28T23:57:54.916Z,5.62
